createdAt,value
2018-09-23T00:00:00.852Z,101061.08
2018-09-23T00:05:03.032Z,101056.56
2018-09-23T00:10:05.637Z,101058.27
2018-09-23T00:15:08.139Z,101063.97
2018-09-23T00:20:10.457Z,101054.80
2018-09-23T00:25:12.606Z,101054.70
2018-09-23T00:30:14.799Z,101056.89
2018-09-23T00:35:16.991Z,101050.91
2018-09-23T00:40:19.137Z,101057.44
2018-09-23T00:45:21.290Z,101055.50
2018-09-23T00:50:23.459Z,101055.50
2018-09-23T00:55:25.567Z,101062.56
2018-09-23T01:00:27.704Z,101053.34
2018-09-23T01:05:29.822Z,101059.03
2018-09-23T01:10:31.952Z,101058.43
2018-09-23T01:15:34.149Z,101052.84
2018-09-23T01:20:36.294Z,101050.56
2018-09-23T01:25:38.432Z,101056.09
2018-09-23T01:30:40.595Z,101055.27
2018-09-23T01:35:42.723Z,101049.54
2018-09-23T01:40:44.847Z,101049.84
2018-09-23T01:45:47.003Z,101053.37
2018-09-23T01:50:49.139Z,101055.31
2018-09-23T01:55:51.267Z,101057.09
2018-09-23T02:00:53.407Z,101057.14
2018-09-23T02:05:55.536Z,101042.27
2018-09-23T02:10:57.655Z,101036.31
2018-09-23T02:15:59.839Z,101021.52
2018-09-23T02:21:02.058Z,101024.05
2018-09-23T02:26:04.162Z,101024.48
2018-09-23T02:31:06.407Z,101018.07
2018-09-23T02:36:08.564Z,101021.43
2018-09-23T02:41:10.711Z,101018.42
2018-09-23T02:46:12.862Z,101012.84
2018-09-23T02:51:15.017Z,101000.81
2018-09-23T02:56:17.130Z,101003.18
2018-09-23T03:01:19.279Z,100999.94
2018-09-23T03:06:21.393Z,101013.16
2018-09-23T03:11:23.563Z,101015.30
2018-09-23T03:16:25.733Z,100995.63
2018-09-23T03:21:27.867Z,100990.64
2018-09-23T03:26:30.009Z,100983.48
2018-09-23T03:31:32.139Z,100985.73
2018-09-23T03:36:34.281Z,100975.89
2018-09-23T03:41:36.426Z,100966.42
2018-09-23T03:46:38.645Z,100962.63
2018-09-23T03:51:40.804Z,100971.48
2018-09-23T03:56:43.610Z,100964.80
2018-09-23T04:01:45.737Z,100974.27
2018-09-23T04:06:47.867Z,100961.52
2018-09-23T04:11:49.969Z,100952.39
2018-09-23T04:16:52.133Z,100954.23
2018-09-23T04:21:54.264Z,100950.12
2018-09-23T04:26:56.430Z,100941.21
2018-09-23T04:31:58.580Z,100944.69
2018-09-23T04:37:00.701Z,100948.09
2018-09-23T04:42:02.818Z,100952.13
2018-09-23T04:47:04.902Z,100951.14
2018-09-23T04:52:06.990Z,100947.23
2018-09-23T04:57:09.115Z,100945.22
2018-09-23T05:02:11.253Z,100945.30
2018-09-23T05:07:13.377Z,100941.41
2018-09-23T05:12:15.513Z,100959.53
2018-09-23T05:17:17.639Z,100964.09
2018-09-23T05:22:19.762Z,100974.98
2018-09-23T05:27:21.882Z,100976.36
2018-09-23T05:32:24.047Z,100964.17
2018-09-23T05:37:26.188Z,100964.13
2018-09-23T05:42:28.397Z,100964.60
2018-09-23T05:47:30.515Z,100965.08
2018-09-23T05:52:32.636Z,100966.78
2018-09-23T05:57:34.793Z,100955.81
2018-09-23T06:02:36.958Z,100951.58
2018-09-23T06:07:39.116Z,100945.28
2018-09-23T06:12:41.281Z,100937.09
2018-09-23T06:17:43.433Z,100943.00
2018-09-23T06:22:45.791Z,100936.58
2018-09-23T06:27:48.570Z,100946.91
2018-09-23T06:32:50.719Z,100957.05
2018-09-23T06:37:53.018Z,100963.53
2018-09-23T06:42:55.150Z,100954.22
2018-09-23T06:47:57.871Z,100945.57
2018-09-23T06:53:00.030Z,100943.08
2018-09-23T06:58:02.171Z,100939.45
2018-09-23T07:03:05.073Z,100945.94
2018-09-23T07:08:07.288Z,100953.80
2018-09-23T07:13:09.472Z,100963.66
2018-09-23T07:18:11.643Z,100953.08
2018-09-23T07:23:13.762Z,100949.34
2018-09-23T07:28:15.888Z,100965.41
2018-09-23T07:33:18.047Z,100976.64
2018-09-23T07:38:20.199Z,100966.89
2018-09-23T07:43:22.471Z,100970.90
2018-09-23T07:48:24.667Z,100965.66
2018-09-23T07:53:26.843Z,100971.45
2018-09-23T07:58:29.000Z,100952.58
2018-09-23T08:03:31.264Z,100961.45
2018-09-23T08:08:33.384Z,100954.09
2018-09-23T08:13:35.745Z,100960.62
2018-09-23T08:18:37.786Z,100953.72
2018-09-23T08:23:39.963Z,100957.59
2018-09-23T08:28:42.146Z,100962.73
2018-09-23T08:33:44.330Z,100971.55
2018-09-23T08:38:46.930Z,100962.52
2018-09-23T08:43:49.076Z,100952.79
2018-09-23T08:48:51.368Z,100950.59
2018-09-23T08:53:53.507Z,100947.73
2018-09-23T08:58:55.752Z,100951.55
2018-09-23T09:03:57.923Z,100938.56
2018-09-23T09:09:00.123Z,100926.28
2018-09-23T09:14:02.320Z,100925.00
2018-09-23T09:19:04.595Z,100913.36
2018-09-23T09:24:06.865Z,100911.80
2018-09-23T09:29:09.258Z,100913.34
2018-09-23T09:34:11.448Z,100910.58
2018-09-23T09:39:13.632Z,100911.33
2018-09-23T09:44:15.825Z,100916.52
2018-09-23T09:49:18.000Z,100892.17
2018-09-23T09:54:20.664Z,100896.31
2018-09-23T09:59:22.947Z,100892.65
2018-09-23T10:04:25.161Z,100892.95
2018-09-23T10:09:27.419Z,100883.78
2018-09-23T10:14:29.609Z,100875.64
2018-09-23T10:19:31.743Z,100863.87
2018-09-23T10:24:33.901Z,100845.59
2018-09-23T10:29:36.111Z,100839.11
2018-09-23T10:34:38.635Z,100832.42
2018-09-23T10:39:40.853Z,100824.91
2018-09-23T10:44:43.090Z,100828.53
2018-09-23T10:49:45.292Z,100814.45
2018-09-23T10:54:47.512Z,100812.62
2018-09-23T10:59:49.729Z,100812.71
2018-09-23T11:04:51.972Z,100809.16
2018-09-23T11:09:54.189Z,100795.78
2018-09-23T11:14:56.375Z,100805.07
2018-09-23T11:19:58.605Z,100787.84
2018-09-23T11:25:00.863Z,100797.91
2018-09-23T11:30:03.870Z,100798.46
2018-09-23T11:35:06.310Z,100784.99
2018-09-23T11:40:08.635Z,100770.99
2018-09-23T11:45:10.747Z,100754.09
2018-09-23T11:50:12.923Z,100754.64
2018-09-23T11:55:15.145Z,100745.50
2018-09-23T12:00:17.701Z,100753.08
2018-09-23T12:05:19.904Z,100741.48
2018-09-23T12:10:22.330Z,100749.02
2018-09-23T12:15:24.450Z,100762.02
2018-09-23T12:20:26.611Z,100756.69
2018-09-23T12:25:28.858Z,100754.03
2018-09-23T12:30:30.974Z,100765.91
2018-09-23T12:35:33.205Z,100752.55
2018-09-23T12:40:35.384Z,100741.41
2018-09-23T12:45:37.600Z,100745.23
2018-09-23T12:50:39.777Z,100748.76
2018-09-23T12:55:41.981Z,100737.59
2018-09-23T13:00:44.192Z,100743.52
2018-09-23T13:05:46.371Z,100732.23
2018-09-23T13:10:55.471Z,100729.35
2018-09-23T13:15:57.664Z,100724.58
2018-09-23T13:20:59.843Z,100731.39
2018-09-23T13:26:02.051Z,100714.41
2018-09-23T13:31:04.276Z,100702.94
2018-09-23T13:36:06.513Z,100702.61
2018-09-23T13:41:08.807Z,100688.30
2018-09-23T13:46:10.969Z,100674.69
2018-09-23T13:51:13.234Z,100661.98
2018-09-23T13:56:15.600Z,100651.41
2018-09-23T14:01:17.798Z,100617.88
2018-09-23T14:06:20.000Z,100629.36
2018-09-23T14:11:22.246Z,100665.30
2018-09-23T14:16:24.460Z,100631.53
2018-09-23T14:21:26.800Z,100668.62
2018-09-23T14:26:29.006Z,100676.12
2018-09-23T14:31:31.219Z,100685.38
2018-09-23T14:36:33.488Z,100685.99
2018-09-23T14:41:35.797Z,100686.02
2018-09-23T14:46:37.980Z,100678.89
2018-09-23T14:51:40.197Z,100676.69
2018-09-23T14:56:42.454Z,100668.17
2018-09-23T15:01:44.696Z,100677.46
2018-09-23T15:06:46.902Z,100688.02
2018-09-23T15:11:49.179Z,100680.89
2018-09-23T15:16:51.384Z,100685.45
2018-09-23T15:21:53.659Z,100670.19
2018-09-23T15:26:55.822Z,100668.67
2018-09-23T15:31:58.135Z,100664.50
2018-09-23T15:37:00.370Z,100672.82
2018-09-23T15:42:02.584Z,100664.93
2018-09-23T15:47:05.183Z,100672.27
2018-09-23T15:52:07.468Z,100664.67
2018-09-23T15:57:09.703Z,100659.61
2018-09-23T16:02:11.961Z,100652.84
2018-09-23T16:07:14.278Z,100648.20
2018-09-23T16:12:16.557Z,100646.87
2018-09-23T16:17:18.852Z,100632.06
2018-09-23T16:22:21.198Z,100635.12
2018-09-23T16:27:23.493Z,100637.16
2018-09-23T16:32:25.769Z,100651.48
2018-09-23T16:37:28.106Z,100660.25
2018-09-23T16:42:30.909Z,100656.75
2018-09-23T16:47:33.214Z,100658.34
2018-09-23T16:52:35.493Z,100662.67
2018-09-23T16:57:37.775Z,100657.55
2018-09-23T17:02:40.115Z,100665.09
2018-09-23T17:07:42.493Z,100668.61
2018-09-23T17:12:44.828Z,100678.69
2018-09-23T17:17:47.271Z,100680.70
2018-09-23T17:22:49.778Z,100696.64
2018-09-23T17:27:52.982Z,100699.09
2018-09-23T17:32:56.249Z,100713.11
2018-09-23T17:37:59.867Z,100719.36
2018-09-23T17:43:02.549Z,100729.89
2018-09-23T17:48:05.786Z,100741.56
2018-09-23T17:53:08.309Z,100753.24
2018-09-23T17:58:11.151Z,100761.48
2018-09-23T18:03:14.474Z,100769.89
2018-09-23T18:08:17.138Z,100763.70
2018-09-23T18:13:20.083Z,100783.63
2018-09-23T18:18:22.961Z,100784.52
2018-09-23T18:23:25.858Z,100805.73
2018-09-23T18:28:28.787Z,100809.14
2018-09-23T18:33:31.449Z,100819.69
2018-09-23T18:38:35.226Z,100835.98
2018-09-23T18:43:39.294Z,100839.17
2018-09-23T18:48:42.340Z,100855.94
2018-09-23T18:53:51.019Z,100861.93
2018-09-23T18:58:54.127Z,100880.02
2018-09-23T19:03:57.656Z,100883.59
2018-09-23T19:09:01.391Z,100892.50
2018-09-23T19:14:05.017Z,100894.44
2018-09-23T19:19:09.554Z,100907.97
2018-09-23T19:24:12.464Z,100911.14
2018-09-23T19:29:15.767Z,100919.03
2018-09-23T19:34:18.656Z,100930.42
2018-09-23T19:39:21.749Z,100935.44
2018-09-23T19:44:24.568Z,100945.55
2018-09-23T19:49:27.512Z,100952.52
2018-09-23T19:54:30.304Z,100952.82
2018-09-23T19:59:34.010Z,100967.28
2018-09-23T20:04:36.914Z,100971.94
2018-09-23T20:09:39.628Z,100981.15
2018-09-23T20:14:42.695Z,100994.15
2018-09-23T20:19:45.304Z,101000.88
2018-09-23T20:24:48.331Z,101007.20
2018-09-23T20:29:50.688Z,101018.19
2018-09-23T20:34:54.038Z,101029.05
2018-09-23T20:39:56.316Z,101043.27
2018-09-23T20:44:58.638Z,101051.77
2018-09-23T20:50:00.890Z,101058.22
2018-09-23T20:55:03.229Z,101064.06
2018-09-23T21:00:05.506Z,101085.70
2018-09-23T21:05:07.715Z,101084.30
2018-09-23T21:10:09.961Z,101095.24
2018-09-23T21:15:12.192Z,101101.48
2018-09-23T21:20:14.311Z,101107.97
2018-09-23T21:25:16.537Z,101119.14
2018-09-23T21:30:18.698Z,101122.45
2018-09-23T21:35:20.890Z,101132.70
2018-09-23T21:40:23.075Z,101138.55
2018-09-23T21:45:25.233Z,101150.62
2018-09-23T21:50:27.358Z,101161.12
2018-09-23T21:55:29.525Z,101157.12
2018-09-23T22:00:37.383Z,101167.97
2018-09-23T22:05:39.772Z,101179.11
2018-09-23T22:10:42.607Z,101191.08
2018-09-23T22:15:44.784Z,101199.54
2018-09-23T22:20:46.961Z,101203.83
2018-09-23T22:25:49.105Z,101215.20
2018-09-23T22:30:51.258Z,101214.95
2018-09-23T22:35:53.407Z,101229.51
2018-09-23T22:40:55.594Z,101236.45
2018-09-23T22:45:57.736Z,101243.06
2018-09-23T22:51:01.369Z,101254.19
2018-09-23T22:56:03.643Z,101255.37
2018-09-23T23:01:05.827Z,101264.16
2018-09-23T23:06:07.949Z,101271.10
2018-09-23T23:11:10.155Z,101279.47
2018-09-23T23:16:12.279Z,101281.66
2018-09-23T23:21:14.427Z,101285.80
2018-09-23T23:26:16.580Z,101289.64
2018-09-23T23:31:18.706Z,101289.92
2018-09-23T23:36:20.819Z,101299.50
2018-09-23T23:41:23.018Z,101304.11
2018-09-23T23:46:25.199Z,101308.17
2018-09-23T23:51:27.383Z,101317.08
2018-09-23T23:56:29.775Z,101326.17
